Time;durP1;ratioP1;P1;durP2;ratioP2;P2;SDS_P1;SDS_P2;PMS_P1;PMS_P2;Temp;Humidity;BMP_temperature;BMP_pressure;BME280_temperature;BME280_humidity;BME280_pressure;Samples;Min_cycle;Max_cycle;Signal;HPM_P1;HPM_P2
2022/04/29 00:00:06;;;;;;;7.30;4.43;;;;;;;;;;4984447;28;20600;-73
2022/04/29 00:02:34;;;;;;;10.03;4.57;;;;;;;;;;4999157;28;20232;-73
2022/04/29 00:05:00;;;;;;;7.17;4.30;;;;;;;;;;4994638;28;20307;-72
2022/04/29 00:07:27;;;;;;;11.50;4.70;;;;;;;;;;4988923;28;20224;-73
2022/04/29 00:09:53;;;;;;;11.43;4.73;;;;;;;;;;5024774;28;20220;-73
2022/04/29 00:12:23;;;;;;;9.80;4.70;;;;;;;;;;5029756;28;20228;-73
2022/04/29 00:14:49;;;;;;;9.70;4.30;;;;;;;;;;4996880;28;20309;-73
2022/04/29 00:17:19;;;;;;;8.80;4.80;;;;;;;;;;4982021;28;20310;-72
2022/04/29 00:19:49;;;;;;;7.33;4.70;;;;;;;;;;5004376;28;20725;-73
2022/04/29 00:22:14;;;;;;;11.20;5.03;;;;;;;;;;5016227;28;20258;-73
2022/04/29 00:24:40;;;;;;;10.13;4.93;;;;;;;;;;5010663;28;20688;-73
2022/04/29 00:27:05;;;;;;;8.63;4.77;;;;;;;;;;5025950;28;20231;-73
2022/04/29 00:29:33;;;;;;;9.93;5.10;;;;;;;;;;4977181;28;20216;-74
2022/04/29 00:31:58;;;;;;;8.90;4.30;;;;;;;;;;4999043;28;20670;-73
2022/04/29 00:34:24;;;;;;;7.97;4.33;;;;;;;;;;5014586;28;20216;-73
2022/04/29 00:36:52;;;;;;;8.40;4.80;;;;;;;;;;5017450;28;20681;-73
2022/04/29 00:39:17;;;;;;;11.10;4.97;;;;;;;;;;4984421;28;20221;-74
2022/04/29 00:41:48;;;;;;;10.00;4.30;;;;;;;;;;4983844;28;20244;-73
2022/04/29 00:44:14;;;;;;;12.93;4.67;;;;;;;;;;5000942;28;20223;-73
2022/04/29 00:46:41;;;;;;;11.47;5.23;;;;;;;;;;5015651;28;20301;-73
2022/04/29 00:49:09;;;;;;;12.73;5.27;;;;;;;;;;4983292;28;20219;-72
2022/04/29 00:51:35;;;;;;;15.80;5.00;;;;;;;;;;4999004;28;20231;-72
2022/04/29 00:54:06;;;;;;;12.30;4.87;;;;;;;;;;5012158;28;20646;-72
2022/04/29 00:56:33;;;;;;;8.83;4.63;;;;;;;;;;4981411;28;20251;-72
2022/04/29 00:59:05;;;;;;;13.77;5.40;;;;;;;;;;4973424;28;20221;-72
2022/04/29 01:01:32;;;;;;;8.17;5.40;;;;;;;;;;4977024;28;20232;-72
2022/04/29 01:04:01;;;;;;;11.63;5.00;;;;;;;;;;5000880;28;20282;-73
2022/04/29 01:06:31;;;;;;;11.90;5.40;;;;;;;;;;4997244;28;20232;-73
2022/04/29 01:08:59;;;;;;;11.00;4.83;;;;;;;;;;4972463;28;20235;-73
2022/04/29 01:11:25;;;;;;;8.00;5.00;;;;;;;;;;4991900;28;20255;-72
2022/04/29 01:13:51;;;;;;;10.87;4.93;;;;;;;;;;4988685;28;20259;-74
2022/04/29 01:16:18;;;;;;;10.70;5.00;;;;;;;;;;5000280;28;20215;-73
2022/04/29 01:18:50;;;;;;;10.03;5.17;;;;;;;;;;5001115;28;20255;-73
2022/04/29 01:21:15;;;;;;;9.53;5.10;;;;;;;;;;4979724;28;20241;-73
2022/04/29 01:23:43;;;;;;;11.33;5.60;;;;;;;;;;4985917;28;20226;-73
2022/04/29 01:26:14;;;;;;;13.67;5.80;;;;;;;;;;4990367;28;20220;-74
2022/04/29 01:28:45;;;;;;;11.60;5.40;;;;;;;;;;4989612;28;20756;-72
2022/04/29 01:31:14;;;;;;;10.33;5.17;;;;;;;;;;4990240;28;20225;-74
2022/04/29 01:33:44;;;;;;;11.23;5.73;;;;;;;;;;4981863;28;20220;-73
2022/04/29 01:36:13;;;;;;;11.10;5.50;;;;;;;;;;4970212;28;20274;-73
2022/04/29 01:38:41;;;;;;;10.40;5.83;;;;;;;;;;5008279;28;20223;-73
2022/04/29 01:41:08;;;;;;;10.23;6.20;;;;;;;;;;4978465;28;20234;-70
2022/04/29 01:43:42;;;;;;;9.30;5.43;;;;;;;;;;4998915;28;20230;-73
2022/04/29 01:46:14;;;;;;;12.67;6.10;;;;;;;;;;4989570;28;20211;-73
2022/04/29 01:49:13;;;;;;;11.93;6.10;;;;;;;;;;5003612;28;20232;-73
2022/04/29 01:51:44;;;;;;;13.30;6.50;;;;;;;;;;5004146;28;20240;-72
2022/04/29 01:54:17;;;;;;;12.87;5.93;;;;;;;;;;5004097;28;20232;-72
2022/04/29 01:56:44;;;;;;;12.03;6.10;;;;;;;;;;5001432;28;20235;-73
2022/04/29 01:59:11;;;;;;;10.37;5.60;;;;;;;;;;4999561;28;20678;-73
2022/04/29 02:01:49;;;;;;;10.33;5.37;;;;;;;;;;5015883;28;20224;-73
2022/04/29 02:04:15;;;;;;;10.97;6.03;;;;;;;;;;5018610;28;20702;-73
2022/04/29 02:06:43;;;;;;;12.00;5.97;;;;;;;;;;5001352;28;20898;-73
2022/04/29 02:09:13;;;;;;;10.83;5.77;;;;;;;;;;5002726;28;20223;-74
2022/04/29 02:12:03;;;;;;;10.83;5.97;;;;;;;;;;5011062;28;20231;-73
2022/04/29 02:14:52;;;;;;;11.03;5.93;;;;;;;;;;4989159;28;20232;-74
2022/04/29 02:17:21;;;;;;;11.53;6.33;;;;;;;;;;4999184;28;20224;-73
2022/04/29 02:19:47;;;;;;;12.70;6.33;;;;;;;;;;4988051;28;20283;-72
2022/04/29 02:22:15;;;;;;;11.27;6.17;;;;;;;;;;5004047;28;20308;-74
2022/04/29 02:24:42;;;;;;;10.60;6.20;;;;;;;;;;5005631;28;20284;-73
2022/04/29 02:27:16;;;;;;;12.30;6.50;;;;;;;;;;5005289;28;20248;-72
2022/04/29 02:29:44;;;;;;;11.87;6.73;;;;;;;;;;5002195;28;20232;-74
2022/04/29 02:32:16;;;;;;;11.30;7.00;;;;;;;;;;4988108;28;20295;-74
2022/04/29 02:34:42;;;;;;;14.07;6.93;;;;;;;;;;4982128;28;20217;-73
2022/04/29 02:37:09;;;;;;;11.70;7.17;;;;;;;;;;4982676;28;20232;-73
2022/04/29 02:39:38;;;;;;;11.63;6.23;;;;;;;;;;4976351;28;20225;-72
2022/04/29 02:42:07;;;;;;;11.27;6.80;;;;;;;;;;4980565;28;20235;-72
2022/04/29 02:44:37;;;;;;;9.57;7.00;;;;;;;;;;4984375;28;20748;-73
2022/04/29 02:47:10;;;;;;;13.47;7.07;;;;;;;;;;4983467;28;20235;-73
2022/04/29 02:49:41;;;;;;;11.83;7.00;;;;;;;;;;5000719;28;20228;-73
2022/04/29 02:52:07;;;;;;;15.27;7.03;;;;;;;;;;5006124;28;20239;-72
2022/04/29 02:54:33;;;;;;;11.47;6.73;;;;;;;;;;4997754;28;20251;-72
2022/04/29 02:57:00;;;;;;;13.57;7.60;;;;;;;;;;4995871;28;20303;-73
2022/04/29 02:59:35;;;;;;;13.80;7.53;;;;;;;;;;4991723;28;20287;-73
2022/04/29 03:02:01;;;;;;;10.07;7.20;;;;;;;;;;5006499;28;20224;-73
2022/04/29 03:04:28;;;;;;;13.93;7.43;;;;;;;;;;4991053;28;20224;-73
2022/04/29 03:06:54;;;;;;;11.60;7.43;;;;;;;;;;5016431;28;20216;-73
2022/04/29 03:09:22;;;;;;;12.00;6.90;;;;;;;;;;4998185;28;20243;-73
2022/04/29 03:11:50;;;;;;;14.60;7.70;;;;;;;;;;4984699;28;20264;-72
2022/04/29 03:14:16;;;;;;;12.63;7.57;;;;;;;;;;4992551;28;20227;-72
2022/04/29 03:16:49;;;;;;;14.60;7.53;;;;;;;;;;5012065;28;20488;-71
2022/04/29 03:19:15;;;;;;;17.90;8.63;;;;;;;;;;5006888;28;20710;-72
2022/04/29 03:21:43;;;;;;;10.87;7.40;;;;;;;;;;5011209;28;20310;-74
2022/04/29 03:24:11;;;;;;;12.90;8.23;;;;;;;;;;4996500;28;20216;-72
2022/04/29 03:26:37;;;;;;;15.30;8.00;;;;;;;;;;4982927;28;20231;-74
2022/04/29 03:29:06;;;;;;;18.30;8.33;;;;;;;;;;5014367;28;20228;-73
2022/04/29 03:31:34;;;;;;;15.23;8.47;;;;;;;;;;4999677;28;20224;-73
2022/04/29 03:34:36;;;;;;;16.13;9.03;;;;;;;;;;4998208;28;20216;-72
2022/04/29 03:37:05;;;;;;;12.40;8.10;;;;;;;;;;4988161;28;20228;-72
2022/04/29 03:39:31;;;;;;;11.67;8.40;;;;;;;;;;5013288;28;20231;-72
2022/04/29 03:41:57;;;;;;;13.00;8.27;;;;;;;;;;4999214;28;20228;-73
2022/04/29 03:44:24;;;;;;;15.20;8.00;;;;;;;;;;4996979;28;20216;-72
2022/04/29 03:46:51;;;;;;;18.47;8.27;;;;;;;;;;4997796;28;20694;-73
2022/04/29 03:49:37;;;;;;;21.90;9.07;;;;;;;;;;5007812;23;20532;-80
2022/04/29 03:52:16;;;;;;;21.13;8.97;;;;;;;;;;4995029;28;20281;-80
2022/04/29 03:54:41;;;;;;;35.80;11.40;;;;;;;;;;4985812;28;20261;-80
2022/04/29 03:57:07;;;;;;;31.27;12.47;;;;;;;;;;4998255;28;20248;-80
2022/04/29 03:59:36;;;;;;;40.53;13.53;;;;;;;;;;4973023;28;20230;-79
2022/04/29 04:02:02;;;;;;;31.70;13.50;;;;;;;;;;4994186;28;20289;-81
2022/04/29 04:04:28;;;;;;;40.43;14.17;;;;;;;;;;4974235;28;20226;-80
2022/04/29 04:07:01;;;;;;;43.10;15.73;;;;;;;;;;4988779;28;20246;-79
2022/04/29 04:09:43;;;;;;;46.57;14.80;;;;;;;;;;4997655;28;20234;-79
2022/04/29 04:12:11;;;;;;;54.80;15.53;;;;;;;;;;4999750;28;20274;-79
2022/04/29 04:14:49;;;;;;;94.70;15.13;;;;;;;;;;4998077;28;20237;-80
2022/04/29 04:17:14;;;;;;;56.00;14.93;;;;;;;;;;4984636;28;20301;-79
2022/04/29 04:19:40;;;;;;;63.57;14.93;;;;;;;;;;4968644;28;20217;-79
2022/04/29 04:22:06;;;;;;;68.53;16.67;;;;;;;;;;5004590;28;20234;-79
2022/04/29 04:27:30;;;;;;;59.13;15.73;;;;;;;;;;4990358;28;20364;-74
2022/04/29 04:29:57;;;;;;;38.93;15.67;;;;;;;;;;4959142;28;20217;-74
2022/04/29 04:32:22;;;;;;;42.60;14.93;;;;;;;;;;4958506;28;20303;-74
2022/04/29 04:34:52;;;;;;;60.97;15.87;;;;;;;;;;4959620;28;20623;-75
2022/04/29 04:37:19;;;;;;;45.33;14.60;;;;;;;;;;4952228;28;20291;-74
2022/04/29 04:39:47;;;;;;;42.13;14.80;;;;;;;;;;4938328;28;20466;-75
2022/04/29 04:42:16;;;;;;;49.43;14.00;;;;;;;;;;4945043;28;20217;-74
2022/04/29 04:44:49;;;;;;;44.13;14.60;;;;;;;;;;4949749;28;20229;-75
2022/04/29 04:47:15;;;;;;;34.17;14.27;;;;;;;;;;4976105;28;20308;-74
2022/04/29 04:50:04;;;;;;;42.87;14.77;;;;;;;;;;4955867;28;20224;-75
2022/04/29 04:52:30;;;;;;;47.90;14.90;;;;;;;;;;4942702;28;20280;-76
2022/04/29 04:54:56;;;;;;;41.87;14.30;;;;;;;;;;4942585;28;20316;-74
2022/04/29 04:57:26;;;;;;;45.27;14.13;;;;;;;;;;4958416;28;20233;-74
2022/04/29 04:59:51;;;;;;;46.30;14.63;;;;;;;;;;4931038;28;20705;-75
2022/04/29 05:02:19;;;;;;;39.60;13.37;;;;;;;;;;4944116;28;20228;-75
2022/04/29 05:05:17;;;;;;;31.17;13.33;;;;;;;;;;4952276;28;20221;-75
2022/04/29 05:07:52;;;;;;;51.90;13.77;;;;;;;;;;4946335;28;20225;-74
2022/04/29 05:10:18;;;;;;;22.50;14.33;;;;;;;;;;4956519;28;20229;-74
2022/04/29 05:12:47;;;;;;;24.00;13.07;;;;;;;;;;4952559;28;20217;-74
2022/04/29 05:15:13;;;;;;;19.87;13.87;;;;;;;;;;4963282;28;20220;-74
2022/04/29 05:17:40;;;;;;;20.13;12.87;;;;;;;;;;4960639;28;20264;-74
2022/04/29 05:20:31;;;;;;;19.23;13.37;;;;;;;;;;4974091;28;20220;-75
2022/04/29 05:23:02;;;;;;;14.73;12.23;;;;;;;;;;4936179;28;20225;-76
2022/04/29 05:25:35;;;;;;;20.60;12.47;;;;;;;;;;4978810;28;20217;-74
2022/04/29 05:28:19;;;;;;;24.17;13.50;;;;;;;;;;4977736;28;20309;-75
2022/04/29 05:31:25;;;;;;;16.53;12.63;;;;;;;;;;4966849;28;20637;-75
2022/04/29 05:34:22;;;;;;;20.13;13.47;;;;;;;;;;4934102;28;20650;-74
2022/04/29 05:37:14;;;;;;;16.97;13.17;;;;;;;;;;4947475;28;20229;-75
2022/04/29 05:42:35;;;;;;;16.57;12.80;;;;;;;;;;4981376;28;20256;-76
2022/04/29 05:45:02;;;;;;;14.67;12.77;;;;;;;;;;4972528;28;20228;-75
2022/04/29 05:47:30;;;;;;;18.17;12.30;;;;;;;;;;4964804;28;20209;-77
2022/04/29 05:50:01;;;;;;;14.40;11.63;;;;;;;;;;4967089;28;20216;-74
2022/04/29 05:52:36;;;;;;;14.53;11.83;;;;;;;;;;4981660;28;22274;-75
2022/04/29 05:55:01;;;;;;;17.37;12.40;;;;;;;;;;4974526;23;20398;-82
2022/04/29 05:57:30;;;;;;;15.30;11.97;;;;;;;;;;4987590;28;20229;-80
2022/04/29 05:59:58;;;;;;;15.10;12.17;;;;;;;;;;4978230;28;20234;-80
2022/04/29 06:02:41;;;;;;;16.97;12.40;;;;;;;;;;4981816;28;20236;-80
2022/04/29 06:05:09;;;;;;;16.63;11.50;;;;;;;;;;4960740;28;20630;-79
2022/04/29 06:07:35;;;;;;;16.40;12.90;;;;;;;;;;4961146;28;20229;-80
2022/04/29 06:10:01;;;;;;;15.90;12.10;;;;;;;;;;4976068;28;20232;-82
2022/04/29 06:12:27;;;;;;;13.33;11.97;;;;;;;;;;4970471;28;20331;-80
2022/04/29 06:14:53;;;;;;;18.20;12.23;;;;;;;;;;4959819;28;20224;-82
2022/04/29 06:18:00;;;;;;;16.27;11.80;;;;;;;;;;4884521;29;20312;-82
2022/04/29 06:20:45;;;;;;;13.60;11.20;;;;;;;;;;4884348;29;20252;-82
2022/04/29 06:23:32;;;;;;;16.27;12.00;;;;;;;;;;4952523;28;20289;-80
2022/04/29 06:26:02;;;;;;;15.53;12.57;;;;;;;;;;4982350;28;20611;-76
2022/04/29 06:28:32;;;;;;;17.93;13.00;;;;;;;;;;4992092;28;20225;-79
2022/04/29 06:31:03;;;;;;;16.90;12.80;;;;;;;;;;4988999;28;20257;-79
2022/04/29 06:33:49;;;;;;;16.53;13.33;;;;;;;;;;4999422;28;20229;-79
2022/04/29 06:36:19;;;;;;;19.73;13.30;;;;;;;;;;4974657;23;20234;-76
2022/04/29 06:38:48;;;;;;;17.17;12.83;;;;;;;;;;4958181;28;20217;-75
2022/04/29 06:41:33;;;;;;;17.40;12.43;;;;;;;;;;4958528;28;20288;-75
2022/04/29 06:44:03;;;;;;;16.70;12.67;;;;;;;;;;4942739;28;20233;-76
2022/04/29 06:46:35;;;;;;;17.87;13.03;;;;;;;;;;4936346;28;20230;-76
2022/04/29 06:49:19;;;;;;;15.17;12.60;;;;;;;;;;4938218;28;20707;-74
2022/04/29 06:52:04;;;;;;;16.37;12.30;;;;;;;;;;4943332;28;20236;-74
2022/04/29 06:54:36;;;;;;;15.10;12.10;;;;;;;;;;4929328;28;20222;-74
2022/04/29 06:57:09;;;;;;;17.70;12.07;;;;;;;;;;4936723;28;20236;-76
2022/04/29 06:59:37;;;;;;;15.63;11.20;;;;;;;;;;4959242;28;20592;-76
2022/04/29 07:02:02;;;;;;;16.60;11.90;;;;;;;;;;4917969;28;20221;-74
2022/04/29 07:04:32;;;;;;;14.07;11.60;;;;;;;;;;4933750;28;20228;-74
2022/04/29 07:06:59;;;;;;;12.53;10.90;;;;;;;;;;4934118;28;20249;-75
2022/04/29 07:09:25;;;;;;;15.47;11.70;;;;;;;;;;4928347;28;20664;-75
2022/04/29 07:12:10;;;;;;;12.27;10.47;;;;;;;;;;4967075;28;20592;-75
2022/04/29 07:15:02;;;;;;;14.30;10.17;;;;;;;;;;4917315;28;20593;-76
2022/04/29 07:17:28;;;;;;;11.70;10.43;;;;;;;;;;4917384;28;20257;-75
2022/04/29 07:19:59;;;;;;;14.30;10.03;;;;;;;;;;4916682;28;20264;-75
2022/04/29 07:22:29;;;;;;;16.50;10.40;;;;;;;;;;4929048;28;20233;-76
2022/04/29 07:24:56;;;;;;;15.33;10.53;;;;;;;;;;4931402;28;20218;-75
2022/04/29 07:27:28;;;;;;;11.83;10.10;;;;;;;;;;4928560;28;20276;-77
2022/04/29 07:29:53;;;;;;;15.07;10.33;;;;;;;;;;4977766;23;20222;-75
2022/04/29 07:32:25;;;;;;;12.43;9.20;;;;;;;;;;5269424;23;20222;-88
2022/04/29 07:43:56;;;;;;;13.00;9.27;;;;;;;;;;5012531;28;20224;-89
2022/04/29 07:46:22;;;;;;;13.13;8.37;;;;;;;;;;4998278;28;20280;-87
2022/04/29 07:49:13;;;;;;;12.63;7.80;;;;;;;;;;5019850;28;20215;-89
2022/04/29 07:51:43;;;;;;;11.87;7.80;;;;;;;;;;5029248;28;20219;-89
2022/04/29 07:54:09;;;;;;;11.73;7.60;;;;;;;;;;4996660;28;20315;-89
2022/04/29 07:56:41;;;;;;;9.73;7.43;;;;;;;;;;4996753;28;20224;-88
2022/04/29 07:59:10;;;;;;;12.93;7.80;;;;;;;;;;4994556;28;20223;-88
2022/04/29 08:01:43;;;;;;;12.73;8.03;;;;;;;;;;4990115;28;20252;-89
2022/04/29 08:04:13;;;;;;;11.93;7.80;;;;;;;;;;4975205;28;20243;-89
2022/04/29 08:06:41;;;;;;;10.20;7.20;;;;;;;;;;4995388;28;20306;-89
2022/04/29 08:09:08;;;;;;;10.43;6.90;;;;;;;;;;5009014;28;20238;-89
2022/04/29 08:11:37;;;;;;;10.17;7.03;;;;;;;;;;4997922;28;20282;-88
2022/04/29 08:14:22;;;;;;;11.33;6.80;;;;;;;;;;5011377;28;20877;-88
2022/04/29 08:17:20;;;;;;;9.13;6.50;;;;;;;;;;5011454;28;20661;-89
2022/04/29 08:19:49;;;;;;;10.63;6.20;;;;;;;;;;4997761;28;20760;-90
2022/04/29 08:22:31;;;;;;;10.67;6.60;;;;;;;;;;5016472;28;20215;-89
2022/04/29 08:24:57;;;;;;;7.67;5.87;;;;;;;;;;5010985;28;20232;-87
2022/04/29 08:27:23;;;;;;;9.97;5.50;;;;;;;;;;4993563;28;20283;-90
2022/04/29 08:29:49;;;;;;;10.63;5.40;;;;;;;;;;5006046;28;20223;-88
2022/04/29 08:32:15;;;;;;;9.33;5.43;;;;;;;;;;5005058;28;20234;-87
2022/04/29 08:34:43;;;;;;;11.93;5.07;;;;;;;;;;5024882;28;20211;-90
2022/04/29 08:37:09;;;;;;;9.17;4.80;;;;;;;;;;5008369;28;20215;-89
2022/04/29 08:39:45;;;;;;;10.00;5.70;;;;;;;;;;5013683;28;20212;-89
2022/04/29 08:42:13;;;;;;;7.37;5.10;;;;;;;;;;5004616;28;20285;-91
2022/04/29 08:44:42;;;;;;;9.37;4.80;;;;;;;;;;4988802;28;20263;-89
2022/04/29 08:47:46;;;;;;;8.13;4.83;;;;;;;;;;4923023;29;20228;-89
2022/04/29 08:50:26;;;;;;;7.90;4.70;;;;;;;;;;4977300;28;20300;-89
2022/04/29 08:52:52;;;;;;;6.77;4.47;;;;;;;;;;4975035;28;20250;-88
2022/04/29 09:00:49;;;;;;;8.27;4.87;;;;;;;;;;5024239;28;20248;-89
2022/04/29 09:03:16;;;;;;;8.70;5.03;;;;;;;;;;4993942;28;20320;-88
2022/04/29 09:05:42;;;;;;;8.60;5.40;;;;;;;;;;4993471;28;20735;-89
2022/04/29 09:08:11;;;;;;;9.27;4.57;;;;;;;;;;5011742;28;20728;-87
2022/04/29 09:10:38;;;;;;;7.57;4.90;;;;;;;;;;5007820;28;20224;-89
2022/04/29 09:13:13;;;;;;;6.43;4.18;;;;;;;;;;5008366;28;20262;-88
2022/04/29 09:15:52;;;;;;;6.40;3.90;;;;;;;;;;5009551;28;20239;-89
2022/04/29 09:18:35;;;;;;;7.63;4.93;;;;;;;;;;5014936;28;20236;-90
2022/04/29 09:21:09;;;;;;;6.18;4.13;;;;;;;;;;4973734;28;20287;-90
2022/04/29 09:23:56;;;;;;;8.52;3.85;;;;;;;;;;4992989;28;20231;-88
2022/04/29 09:26:40;;;;;;;9.13;3.90;;;;;;;;;;5015865;28;20345;-90
2022/04/29 09:29:24;;;;;;;5.72;4.05;;;;;;;;;;5011044;28;20266;-90
2022/04/29 09:32:00;;;;;;;9.70;4.00;;;;;;;;;;5011949;28;20258;-90
2022/04/29 09:34:55;;;;;;;7.75;4.00;;;;;;;;;;5017874;28;20279;-90
2022/04/29 09:37:22;;;;;;;7.38;4.15;;;;;;;;;;4997621;28;20321;-88
2022/04/29 09:39:52;;;;;;;7.10;3.70;;;;;;;;;;5013186;28;20227;-87
2022/04/29 09:42:21;;;;;;;6.45;3.70;;;;;;;;;;5023877;28;20827;-87
2022/04/29 09:44:47;;;;;;;6.45;3.67;;;;;;;;;;4992376;28;20223;-88
2022/04/29 09:47:14;;;;;;;7.03;3.65;;;;;;;;;;4978950;28;20251;-88
2022/04/29 09:49:58;;;;;;;6.38;3.72;;;;;;;;;;5010214;28;20203;-91
2022/04/29 09:52:25;;;;;;;7.38;4.03;;;;;;;;;;5021918;28;20218;-91
2022/04/29 09:54:51;;;;;;;7.82;3.90;;;;;;;;;;5010659;28;20203;-90
2022/04/29 09:57:23;;;;;;;7.75;3.85;;;;;;;;;;5027956;28;20223;-91
2022/04/29 09:59:58;;;;;;;6.38;3.63;;;;;;;;;;5031972;28;20227;-92
2022/04/29 10:02:27;;;;;;;8.75;4.25;;;;;;;;;;5014905;28;20211;-92
2022/04/29 10:05:00;;;;;;;6.95;4.53;;;;;;;;;;4994324;23;20236;-75
2022/04/29 10:07:26;;;;;;;4.63;3.55;;;;;;;;;;4956045;28;20226;-76
2022/04/29 10:09:59;;;;;;;9.27;4.05;;;;;;;;;;4942139;28;20722;-75
2022/04/29 10:12:26;;;;;;;7.35;3.70;;;;;;;;;;4941934;28;20218;-76
2022/04/29 10:15:28;;;;;;;6.22;3.85;;;;;;;;;;4943908;28;20249;-74
2022/04/29 10:21:16;;;;;;;8.70;4.53;;;;;;;;;;4958091;28;20262;-76
2022/04/29 10:23:51;;;;;;;5.65;3.70;;;;;;;;;;4955266;28;20547;-76
2022/04/29 10:26:20;;;;;;;4.93;3.58;;;;;;;;;;4932234;28;20704;-76
2022/04/29 10:28:48;;;;;;;6.63;3.10;;;;;;;;;;4954335;28;20646;-76
2022/04/29 10:31:20;;;;;;;3.80;2.80;;;;;;;;;;4986268;23;20260;-83
2022/04/29 10:33:45;;;;;;;4.90;2.97;;;;;;;;;;4993185;28;20262;-84
2022/04/29 10:36:16;;;;;;;4.43;2.95;;;;;;;;;;4959411;28;20236;-85
2022/04/29 10:38:46;;;;;;;5.75;4.07;;;;;;;;;;4971457;28;20233;-79
2022/04/29 10:41:26;;;;;;;5.63;2.97;;;;;;;;;;4996128;28;20276;-81
2022/04/29 10:43:51;;;;;;;5.07;2.13;;;;;;;;;;4976658;28;20263;-79
2022/04/29 10:46:21;;;;;;;4.40;2.40;;;;;;;;;;4997621;28;20233;-79
2022/04/29 10:49:28;;;;;;;8.00;3.13;;;;;;;;;;4990954;28;20662;-79
2022/04/29 10:52:26;;;;;;;6.75;2.80;;;;;;;;;;4975734;28;20260;-77
2022/04/29 10:55:04;;;;;;;3.50;2.42;;;;;;;;;;4967159;28;20826;-79
2022/04/29 10:57:40;;;;;;;4.53;2.88;;;;;;;;;;4983102;28;20237;-78
2022/04/29 11:00:11;;;;;;;3.33;2.30;;;;;;;;;;4984039;28;20283;-79
2022/04/29 11:02:43;;;;;;;5.78;2.42;;;;;;;;;;4982248;28;20280;-77
2022/04/29 11:05:09;;;;;;;3.78;2.15;;;;;;;;;;4971620;28;20233;-78
2022/04/29 11:07:39;;;;;;;2.55;2.00;;;;;;;;;;4981575;28;20242;-78
2022/04/29 11:10:22;;;;;;;4.03;2.40;;;;;;;;;;4956654;28;20313;-79
2022/04/29 11:13:05;;;;;;;5.60;2.20;;;;;;;;;;4970980;28;20234;-78
2022/04/29 11:15:50;;;;;;;4.22;2.05;;;;;;;;;;4971014;28;20240;-77
2022/04/29 11:19:19;;;;;;;2.53;1.92;;;;;;;;;;4987009;28;20317;-78
2022/04/29 11:24:42;;;;;;;4.78;2.08;;;;;;;;;;4969782;28;20260;-78
2022/04/29 11:27:08;;;;;;;4.18;2.50;;;;;;;;;;4990290;28;20336;-78
2022/04/29 11:29:43;;;;;;;3.75;2.42;;;;;;;;;;4963987;28;20624;-77
2022/04/29 11:32:31;;;;;;;4.22;2.60;;;;;;;;;;4968923;28;20245;-77
2022/04/29 11:34:58;;;;;;;5.53;3.00;;;;;;;;;;4996386;28;20566;-76
2022/04/29 11:37:33;;;;;;;7.53;3.15;;;;;;;;;;4969517;28;20224;-77
2022/04/29 11:40:06;;;;;;;5.70;2.65;;;;;;;;;;4957926;28;20241;-78
2022/04/29 11:42:33;;;;;;;3.03;2.45;;;;;;;;;;4972894;28;20695;-77
2022/04/29 11:45:08;;;;;;;5.63;2.63;;;;;;;;;;4965980;28;20865;-78
2022/04/29 11:47:37;;;;;;;5.13;2.60;;;;;;;;;;4998253;28;20261;-78
2022/04/29 11:50:04;;;;;;;6.50;2.97;;;;;;;;;;4990620;28;20221;-79
2022/04/29 11:52:30;;;;;;;4.88;2.80;;;;;;;;;;4954970;28;20279;-80
2022/04/29 11:55:06;;;;;;;5.65;2.47;;;;;;;;;;4960079;28;20238;-76
2022/04/29 11:57:36;;;;;;;5.03;2.67;;;;;;;;;;4991783;28;20237;-78
2022/04/29 12:00:03;;;;;;;5.47;2.40;;;;;;;;;;4956674;28;20299;-79
2022/04/29 12:02:38;;;;;;;6.03;2.92;;;;;;;;;;4979172;28;20225;-78
2022/04/29 12:05:06;;;;;;;5.20;3.20;;;;;;;;;;4954821;28;20307;-79
2022/04/29 12:07:45;;;;;;;6.55;2.80;;;;;;;;;;4962675;28;21147;-81
2022/04/29 12:10:19;;;;;;;7.05;3.03;;;;;;;;;;4958768;28;20261;-80
2022/04/29 12:12:48;;;;;;;9.80;3.35;;;;;;;;;;4968457;28;20683;-80
2022/04/29 12:15:18;;;;;;;7.88;3.40;;;;;;;;;;4961375;28;20607;-78
2022/04/29 12:17:47;;;;;;;6.03;3.33;;;;;;;;;;4952869;28;20782;-78
2022/04/29 12:20:19;;;;;;;4.07;2.78;;;;;;;;;;4966348;28;20258;-78
2022/04/29 12:22:50;;;;;;;6.57;2.90;;;;;;;;;;4966363;28;20225;-78
2022/04/29 12:25:37;;;;;;;6.05;2.97;;;;;;;;;;4941564;28;20249;-77
2022/04/29 12:28:06;;;;;;;5.90;2.80;;;;;;;;;;4947512;28;20226;-78
2022/04/29 12:36:10;;;;;;;5.13;2.80;;;;;;;;;;4986182;28;20440;-78
2022/04/29 12:38:37;;;;;;;3.80;2.20;;;;;;;;;;4957049;28;20883;-77
2022/04/29 12:41:23;;;;;;;5.78;2.55;;;;;;;;;;4951703;28;20226;-76
2022/04/29 12:50:19;;;;;;;4.10;2.40;;;;;;;;;;5000970;28;20232;-77
2022/04/29 12:53:04;;;;;;;7.22;2.65;;;;;;;;;;4998804;28;20268;-79
2022/04/29 12:55:33;;;;;;;5.30;2.88;;;;;;;;;;4995555;28;20285;-80
2022/04/29 12:58:10;;;;;;;4.68;2.85;;;;;;;;;;4970555;28;20249;-79
2022/04/29 13:00:40;;;;;;;4.97;2.80;;;;;;;;;;4975247;28;20250;-81
2022/04/29 13:03:10;;;;;;;3.67;2.47;;;;;;;;;;4995655;28;20223;-78
2022/04/29 13:05:38;;;;;;;7.20;3.03;;;;;;;;;;4977520;28;20777;-78
2022/04/29 13:08:06;;;;;;;5.85;3.25;;;;;;;;;;5021598;22;20229;-76
2022/04/29 13:10:43;;;;;;;5.15;2.80;;;;;;;;;;4985177;28;20213;-75
2022/04/29 13:13:08;;;;;;;6.53;2.83;;;;;;;;;;4967229;28;20233;-75
2022/04/29 13:15:44;;;;;;;3.90;2.80;;;;;;;;;;4945139;28;20229;-75
2022/04/29 13:20:44;;;;;;;6.95;3.40;;;;;;;;;;4971785;28;20240;-80
2022/04/29 13:23:17;;;;;;;4.50;2.97;;;;;;;;;;4967280;28;20223;-82
2022/04/29 13:25:45;;;;;;;5.25;3.28;;;;;;;;;;4926027;28;20237;-80
2022/04/29 13:28:12;;;;;;;5.03;3.28;;;;;;;;;;4926403;28;20258;-80
2022/04/29 13:30:39;;;;;;;5.82;3.67;;;;;;;;;;4942054;28;20319;-78
2022/04/29 13:33:04;;;;;;;6.50;3.33;;;;;;;;;;4931733;28;20231;-81
2022/04/29 13:35:30;;;;;;;4.95;3.60;;;;;;;;;;4948188;28;20253;-80
2022/04/29 13:37:58;;;;;;;8.20;3.67;;;;;;;;;;4934858;28;20333;-82
2022/04/29 13:40:26;;;;;;;7.75;3.53;;;;;;;;;;4954939;28;20782;-80
2022/04/29 13:42:54;;;;;;;6.70;4.05;;;;;;;;;;4942884;28;20227;-79
2022/04/29 13:45:20;;;;;;;5.60;3.50;;;;;;;;;;4959157;28;20312;-82
2022/04/29 13:47:46;;;;;;;6.15;3.60;;;;;;;;;;4957732;28;20417;-80
2022/04/29 13:50:11;;;;;;;5.05;3.53;;;;;;;;;;4946186;28;20226;-81
2022/04/29 13:55:23;;;;;;;7.43;4.55;;;;;;;;;;4954439;28;20242;-81
2022/04/29 13:57:49;;;;;;;5.68;4.45;;;;;;;;;;4961667;28;20260;-81
2022/04/29 14:00:17;;;;;;;8.23;4.30;;;;;;;;;;4947889;28;20218;-79
2022/04/29 14:02:43;;;;;;;7.28;4.43;;;;;;;;;;4952374;28;20258;-81
2022/04/29 14:05:09;;;;;;;7.07;4.57;;;;;;;;;;4933994;28;20229;-81
2022/04/29 14:07:38;;;;;;;7.17;4.70;;;;;;;;;;4938251;28;20625;-82
2022/04/29 14:10:07;;;;;;;6.72;4.30;;;;;;;;;;4956391;28;20285;-80
2022/04/29 14:12:33;;;;;;;6.50;4.10;;;;;;;;;;4944077;28;20222;-80
2022/04/29 14:14:58;;;;;;;6.93;4.20;;;;;;;;;;4927167;28;20252;-81
2022/04/29 14:17:26;;;;;;;5.22;4.10;;;;;;;;;;4946745;28;20736;-79
2022/04/29 14:19:54;;;;;;;6.53;4.40;;;;;;;;;;4920339;28;20215;-81
2022/04/29 14:22:19;;;;;;;8.13;4.57;;;;;;;;;;4960292;28;20925;-81
2022/04/29 14:24:47;;;;;;;8.80;4.05;;;;;;;;;;4976594;28;20226;-81
2022/04/29 14:27:15;;;;;;;5.72;4.10;;;;;;;;;;4970649;28;20210;-78
2022/04/29 14:29:42;;;;;;;4.75;4.10;;;;;;;;;;4952019;28;20237;-77
2022/04/29 14:32:09;;;;;;;5.53;3.80;;;;;;;;;;4939441;28;20234;-77
2022/04/29 14:34:34;;;;;;;6.00;3.70;;;;;;;;;;4955390;28;21196;-79
2022/04/29 14:37:00;;;;;;;7.47;4.10;;;;;;;;;;4911630;28;20238;-81
2022/04/29 14:39:28;;;;;;;4.90;3.60;;;;;;;;;;4938701;28;20281;-81
2022/04/29 14:41:55;;;;;;;8.65;3.70;;;;;;;;;;4943768;28;20226;-78
2022/04/29 14:44:21;;;;;;;5.90;4.50;;;;;;;;;;4951708;28;20574;-82
2022/04/29 14:46:48;;;;;;;8.88;4.18;;;;;;;;;;4938126;28;20230;-81
2022/04/29 14:49:16;;;;;;;5.80;4.03;;;;;;;;;;4953820;28;20218;-82
2022/04/29 14:51:42;;;;;;;8.40;4.35;;;;;;;;;;4931265;28;20232;-82
2022/04/29 14:54:10;;;;;;;7.45;4.38;;;;;;;;;;4928610;28;20222;-80
2022/04/29 14:57:10;;;;;;;7.97;4.65;;;;;;;;;;4943803;28;20668;-81
2022/04/29 14:59:37;;;;;;;5.93;4.77;;;;;;;;;;4974994;28;20716;-80
2022/04/29 15:05:45;;;;;;;4.90;4.47;;;;;;;;;;5019257;28;20619;-74
2022/04/29 15:08:11;;;;;;;7.90;4.83;;;;;;;;;;5008001;28;20267;-75
2022/04/29 15:16:04;;;;;;;6.60;5.00;;;;;;;;;;5004010;28;20698;-75
2022/04/29 15:18:30;;;;;;;7.70;5.60;;;;;;;;;;4991470;28;20240;-74
2022/04/29 15:20:56;;;;;;;7.17;4.83;;;;;;;;;;4972582;28;20225;-75
2022/04/29 15:23:21;;;;;;;6.10;4.47;;;;;;;;;;4968320;28;20208;-75
2022/04/29 15:25:49;;;;;;;5.47;4.10;;;;;;;;;;4997014;28;20224;-75
2022/04/29 15:28:14;;;;;;;7.32;4.25;;;;;;;;;;5019600;28;20224;-73
2022/04/29 15:30:48;;;;;;;6.25;4.25;;;;;;;;;;4993552;28;20772;-74
2022/04/29 15:33:15;;;;;;;5.30;4.13;;;;;;;;;;4992799;28;20698;-76
2022/04/29 15:35:42;;;;;;;6.30;3.75;;;;;;;;;;5023441;28;20226;-74
2022/04/29 15:38:07;;;;;;;5.68;3.67;;;;;;;;;;4979443;23;20603;-78
2022/04/29 15:40:33;;;;;;;4.43;3.50;;;;;;;;;;4948402;28;20226;-78
2022/04/29 15:45:33;;;;;;;4.73;3.40;;;;;;;;;;4991537;28;20224;-77
2022/04/29 15:47:58;;;;;;;4.38;3.53;;;;;;;;;;4970427;28;20233;-76
2022/04/29 15:50:24;;;;;;;5.95;3.60;;;;;;;;;;4965196;28;20785;-75
2022/04/29 15:52:49;;;;;;;4.27;3.20;;;;;;;;;;4981768;28;20264;-74